sensor_id;sensor_type;location;lat;lon;timestamp;P1;durP1;ratioP1;P2;durP2;ratioP2
82922;SDS011;72787;51.272;6.040;2023-10-31T13:41:30;4.39;;;4.39;;
82922;SDS011;72787;51.272;6.040;2023-10-31T13:43:55;3.43;;;3.41;;
82922;SDS011;72787;51.272;6.040;2023-10-31T13:46:21;3.16;;;3.16;;
82922;SDS011;72787;51.272;6.040;2023-10-31T13:48:48;2.84;;;2.84;;
82922;SDS011;72787;51.272;6.040;2023-10-31T13:53:05;3.83;;;3.51;;
82922;SDS011;72787;51.272;6.040;2023-10-31T13:55:33;2.77;;;2.76;;
82922;SDS011;72787;51.272;6.040;2023-10-31T13:57:58;2.49;;;2.49;;
82922;SDS011;72787;51.272;6.040;2023-10-31T14:00:24;2.48;;;2.48;;
82922;SDS011;72787;51.272;6.040;2023-10-31T14:02:50;2.40;;;2.40;;
82922;SDS011;72787;51.272;6.040;2023-10-31T14:05:16;2.40;;;2.40;;
82922;SDS011;72787;51.272;6.040;2023-10-31T14:07:41;2.35;;;2.35;;
82922;SDS011;72787;51.272;6.040;2023-10-31T14:10:08;2.39;;;2.39;;
82922;SDS011;72787;51.272;6.040;2023-10-31T14:12:34;2.44;;;2.44;;
82922;SDS011;72787;51.272;6.040;2023-10-31T14:14:59;2.46;;;2.46;;
82922;SDS011;72787;51.272;6.040;2023-10-31T14:17:25;2.68;;;2.68;;
82922;SDS011;72787;51.272;6.040;2023-10-31T14:19:51;2.61;;;2.61;;
82922;SDS011;72787;51.272;6.040;2023-10-31T14:22:17;2.53;;;2.53;;
82922;SDS011;72787;51.272;6.040;2023-10-31T14:24:43;2.54;;;2.54;;
82922;SDS011;72787;51.272;6.040;2023-10-31T14:27:08;2.61;;;2.61;;
82922;SDS011;72787;51.272;6.040;2023-10-31T14:29:34;2.34;;;2.34;;
82922;SDS011;72787;51.272;6.040;2023-10-31T14:32:06;2.55;;;2.55;;
82922;SDS011;72787;51.272;6.040;2023-10-31T14:34:34;2.71;;;2.71;;
82922;SDS011;72787;51.272;6.040;2023-10-31T14:37:00;2.55;;;2.55;;
82922;SDS011;72787;51.272;6.040;2023-10-31T14:39:26;2.63;;;2.63;;
82922;SDS011;72787;51.272;6.040;2023-10-31T14:41:51;2.60;;;2.60;;
82922;SDS011;72787;51.272;6.040;2023-10-31T14:44:17;2.60;;;2.60;;
82922;SDS011;72787;51.272;6.040;2023-10-31T14:46:43;2.54;;;2.54;;
82922;SDS011;72787;51.272;6.040;2023-10-31T14:49:09;2.71;;;2.71;;
82922;SDS011;72787;51.272;6.040;2023-10-31T14:51:36;2.79;;;2.79;;
82922;SDS011;72787;51.272;6.040;2023-10-31T14:54:02;2.55;;;2.55;;
82922;SDS011;72787;51.272;6.040;2023-10-31T14:56:27;2.65;;;2.65;;
82922;SDS011;72787;51.272;6.040;2023-10-31T14:58:55;2.77;;;2.77;;
82922;SDS011;72787;51.272;6.040;2023-10-31T15:01:21;2.80;;;2.80;;
82922;SDS011;72787;51.272;6.040;2023-10-31T15:03:46;2.66;;;2.66;;
82922;SDS011;72787;51.272;6.040;2023-10-31T15:06:12;2.68;;;2.68;;
82922;SDS011;72787;51.272;6.040;2023-10-31T15:08:39;2.57;;;2.57;;
82922;SDS011;72787;51.272;6.040;2023-10-31T15:11:05;2.56;;;2.56;;
82922;SDS011;72787;51.272;6.040;2023-10-31T15:13:31;2.71;;;2.71;;
82922;SDS011;72787;51.272;6.040;2023-10-31T15:15:57;2.55;;;2.55;;
82922;SDS011;72787;51.272;6.040;2023-10-31T15:18:22;2.73;;;2.73;;
82922;SDS011;72787;51.272;6.040;2023-10-31T15:20:48;2.72;;;2.72;;
82922;SDS011;72787;51.272;6.040;2023-10-31T15:23:14;2.68;;;2.68;;
82922;SDS011;72787;51.272;6.040;2023-10-31T15:25:40;2.69;;;2.69;;
82922;SDS011;72787;51.272;6.040;2023-10-31T15:28:06;2.86;;;2.86;;
82922;SDS011;72787;51.272;6.040;2023-10-31T15:30:32;2.75;;;2.75;;
82922;SDS011;72787;51.272;6.040;2023-10-31T15:32:58;2.91;;;2.91;;
82922;SDS011;72787;51.272;6.040;2023-10-31T15:35:24;2.85;;;2.85;;
82922;SDS011;72787;51.272;6.040;2023-10-31T15:37:50;2.85;;;2.85;;
82922;SDS011;72787;51.272;6.040;2023-10-31T15:40:16;2.90;;;2.90;;
82922;SDS011;72787;51.272;6.040;2023-10-31T15:42:42;2.87;;;2.87;;
82922;SDS011;72787;51.272;6.040;2023-10-31T15:45:08;2.62;;;2.62;;
82922;SDS011;72787;51.272;6.040;2023-10-31T15:47:34;2.73;;;2.73;;
82922;SDS011;72787;51.272;6.040;2023-10-31T15:50:00;2.68;;;2.68;;
82922;SDS011;72787;51.272;6.040;2023-10-31T15:52:25;2.82;;;2.82;;
82922;SDS011;72787;51.272;6.040;2023-10-31T15:54:51;2.55;;;2.55;;
82922;SDS011;72787;51.272;6.040;2023-10-31T15:57:17;2.86;;;2.86;;
82922;SDS011;72787;51.272;6.040;2023-10-31T15:59:47;3.02;;;3.02;;
82922;SDS011;72787;51.272;6.040;2023-10-31T16:02:13;2.87;;;2.87;;
82922;SDS011;72787;51.272;6.040;2023-10-31T16:04:41;2.64;;;2.64;;
82922;SDS011;72787;51.272;6.040;2023-10-31T16:07:07;2.67;;;2.67;;
82922;SDS011;72787;51.272;6.040;2023-10-31T16:09:35;2.67;;;2.67;;
82922;SDS011;72787;51.272;6.040;2023-10-31T16:12:01;2.37;;;2.37;;
82922;SDS011;72787;51.272;6.040;2023-10-31T16:14:31;2.83;;;2.83;;
82922;SDS011;72787;51.272;6.040;2023-10-31T16:16:57;2.45;;;2.45;;
82922;SDS011;72787;51.272;6.040;2023-10-31T16:19:23;2.61;;;2.61;;
82922;SDS011;72787;51.272;6.040;2023-10-31T16:21:50;2.47;;;2.47;;
82922;SDS011;72787;51.272;6.040;2023-10-31T16:24:15;2.49;;;2.49;;
82922;SDS011;72787;51.272;6.040;2023-10-31T16:26:43;2.39;;;2.39;;
82922;SDS011;72787;51.272;6.040;2023-10-31T16:29:08;2.53;;;2.53;;
82922;SDS011;72787;51.272;6.040;2023-10-31T16:31:39;2.44;;;2.44;;
82922;SDS011;72787;51.272;6.040;2023-10-31T16:34:05;2.34;;;2.34;;
82922;SDS011;72787;51.272;6.040;2023-10-31T16:36:32;2.30;;;2.30;;
82922;SDS011;72787;51.272;6.040;2023-10-31T16:38:58;2.44;;;2.44;;
82922;SDS011;72787;51.272;6.040;2023-10-31T16:41:24;2.46;;;2.46;;
82922;SDS011;72787;51.272;6.040;2023-10-31T16:43:51;2.26;;;2.26;;
82922;SDS011;72787;51.272;6.040;2023-10-31T16:46:17;2.21;;;2.21;;
82922;SDS011;72787;51.272;6.040;2023-10-31T16:48:43;2.23;;;2.23;;
82922;SDS011;72787;51.272;6.040;2023-10-31T16:51:16;2.19;;;2.19;;
82922;SDS011;72787;51.272;6.040;2023-10-31T16:53:43;2.23;;;2.23;;
82922;SDS011;72787;51.272;6.040;2023-10-31T16:56:09;2.01;;;2.01;;
82922;SDS011;72787;51.272;6.040;2023-10-31T16:58:35;2.02;;;2.02;;
82922;SDS011;72787;51.272;6.040;2023-10-31T17:01:01;2.01;;;2.01;;
82922;SDS011;72787;51.272;6.040;2023-10-31T17:03:26;2.02;;;2.02;;
82922;SDS011;72787;51.272;6.040;2023-10-31T17:05:52;1.93;;;1.93;;
82922;SDS011;72787;51.272;6.040;2023-10-31T17:08:18;2.13;;;2.13;;
82922;SDS011;72787;51.272;6.040;2023-10-31T17:10:44;2.08;;;2.08;;
82922;SDS011;72787;51.272;6.040;2023-10-31T17:13:10;2.00;;;2.00;;
82922;SDS011;72787;51.272;6.040;2023-10-31T17:15:36;2.23;;;2.23;;
82922;SDS011;72787;51.272;6.040;2023-10-31T17:18:01;2.16;;;2.16;;
82922;SDS011;72787;51.272;6.040;2023-10-31T17:20:30;2.03;;;2.03;;
82922;SDS011;72787;51.272;6.040;2023-10-31T17:22:56;2.09;;;2.09;;
82922;SDS011;72787;51.272;6.040;2023-10-31T17:25:22;2.16;;;2.16;;
82922;SDS011;72787;51.272;6.040;2023-10-31T17:27:47;1.93;;;1.93;;
82922;SDS011;72787;51.272;6.040;2023-10-31T17:30:14;2.06;;;2.06;;
82922;SDS011;72787;51.272;6.040;2023-10-31T17:32:40;1.97;;;1.97;;
82922;SDS011;72787;51.272;6.040;2023-10-31T17:35:06;2.01;;;2.01;;
82922;SDS011;72787;51.272;6.040;2023-10-31T17:37:32;2.02;;;2.02;;
82922;SDS011;72787;51.272;6.040;2023-10-31T17:39:58;2.08;;;2.08;;
82922;SDS011;72787;51.272;6.040;2023-10-31T17:42:24;1.96;;;1.96;;
82922;SDS011;72787;51.272;6.040;2023-10-31T17:44:51;2.01;;;2.01;;
82922;SDS011;72787;51.272;6.040;2023-10-31T17:47:17;2.10;;;2.10;;
82922;SDS011;72787;51.272;6.040;2023-10-31T17:49:44;2.13;;;2.13;;
82922;SDS011;72787;51.272;6.040;2023-10-31T17:52:10;2.25;;;2.25;;
82922;SDS011;72787;51.272;6.040;2023-10-31T17:54:36;1.91;;;1.91;;
82922;SDS011;72787;51.272;6.040;2023-10-31T17:57:02;2.12;;;2.12;;
82922;SDS011;72787;51.272;6.040;2023-10-31T17:59:27;2.05;;;2.05;;
82922;SDS011;72787;51.272;6.040;2023-10-31T18:01:53;2.07;;;2.07;;
82922;SDS011;72787;51.272;6.040;2023-10-31T18:04:19;2.08;;;2.08;;
82922;SDS011;72787;51.272;6.040;2023-10-31T18:06:45;2.16;;;2.16;;
82922;SDS011;72787;51.272;6.040;2023-10-31T18:09:11;2.11;;;2.11;;
82922;SDS011;72787;51.272;6.040;2023-10-31T18:11:41;2.05;;;2.05;;
82922;SDS011;72787;51.272;6.040;2023-10-31T18:14:10;2.11;;;2.11;;
82922;SDS011;72787;51.272;6.040;2023-10-31T18:16:36;2.36;;;2.36;;
82922;SDS011;72787;51.272;6.040;2023-10-31T18:19:02;2.02;;;2.02;;
82922;SDS011;72787;51.272;6.040;2023-10-31T18:21:28;2.31;;;2.31;;
82922;SDS011;72787;51.272;6.040;2023-10-31T18:23:57;2.44;;;2.44;;
82922;SDS011;72787;51.272;6.040;2023-10-31T18:26:23;2.46;;;2.46;;
82922;SDS011;72787;51.272;6.040;2023-10-31T18:28:49;2.37;;;2.37;;
82922;SDS011;72787;51.272;6.040;2023-10-31T18:31:18;2.56;;;2.56;;
82922;SDS011;72787;51.272;6.040;2023-10-31T18:33:44;2.51;;;2.51;;
82922;SDS011;72787;51.272;6.040;2023-10-31T18:36:10;2.55;;;2.55;;
82922;SDS011;72787;51.272;6.040;2023-10-31T18:38:36;2.68;;;2.68;;
82922;SDS011;72787;51.272;6.040;2023-10-31T18:41:01;2.86;;;2.86;;
82922;SDS011;72787;51.272;6.040;2023-10-31T18:43:28;3.00;;;3.00;;
82922;SDS011;72787;51.272;6.040;2023-10-31T18:45:54;2.73;;;2.73;;
82922;SDS011;72787;51.272;6.040;2023-10-31T18:48:20;2.52;;;2.52;;
82922;SDS011;72787;51.272;6.040;2023-10-31T18:50:46;2.59;;;2.59;;
82922;SDS011;72787;51.272;6.040;2023-10-31T18:53:12;2.60;;;2.60;;
82922;SDS011;72787;51.272;6.040;2023-10-31T18:55:38;2.75;;;2.75;;
82922;SDS011;72787;51.272;6.040;2023-10-31T18:58:04;2.67;;;2.67;;
82922;SDS011;72787;51.272;6.040;2023-10-31T19:00:29;2.76;;;2.76;;
82922;SDS011;72787;51.272;6.040;2023-10-31T19:02:55;2.69;;;2.69;;
82922;SDS011;72787;51.272;6.040;2023-10-31T19:05:21;2.80;;;2.80;;
82922;SDS011;72787;51.272;6.040;2023-10-31T19:07:48;2.84;;;2.84;;
82922;SDS011;72787;51.272;6.040;2023-10-31T19:10:14;3.19;;;3.19;;
82922;SDS011;72787;51.272;6.040;2023-10-31T19:12:40;3.18;;;3.18;;
82922;SDS011;72787;51.272;6.040;2023-10-31T19:15:07;3.23;;;3.23;;
82922;SDS011;72787;51.272;6.040;2023-10-31T19:17:33;3.45;;;3.44;;
82922;SDS011;72787;51.272;6.040;2023-10-31T19:19:59;3.94;;;3.64;;
82922;SDS011;72787;51.272;6.040;2023-10-31T19:22:25;4.40;;;3.99;;
82922;SDS011;72787;51.272;6.040;2023-10-31T19:24:50;4.70;;;4.25;;
82922;SDS011;72787;51.272;6.040;2023-10-31T19:27:16;4.92;;;4.37;;
82922;SDS011;72787;51.272;6.040;2023-10-31T19:29:42;4.82;;;4.30;;
82922;SDS011;72787;51.272;6.040;2023-10-31T19:32:08;5.74;;;4.96;;
82922;SDS011;72787;51.272;6.040;2023-10-31T19:34:34;5.71;;;4.78;;
82922;SDS011;72787;51.272;6.040;2023-10-31T19:37:00;5.78;;;4.80;;
82922;SDS011;72787;51.272;6.040;2023-10-31T19:39:26;5.80;;;4.78;;
82922;SDS011;72787;51.272;6.040;2023-10-31T19:41:52;5.67;;;4.73;;
82922;SDS011;72787;51.272;6.040;2023-10-31T19:44:19;5.20;;;4.43;;
82922;SDS011;72787;51.272;6.040;2023-10-31T19:46:45;5.36;;;4.60;;
82922;SDS011;72787;51.272;6.040;2023-10-31T19:49:14;5.31;;;4.54;;
82922;SDS011;72787;51.272;6.040;2023-10-31T19:51:40;5.14;;;4.42;;
82922;SDS011;72787;51.272;6.040;2023-10-31T19:54:07;4.85;;;4.23;;
82922;SDS011;72787;51.272;6.040;2023-10-31T19:56:33;4.52;;;3.91;;
82922;SDS011;72787;51.272;6.040;2023-10-31T19:58:59;4.80;;;4.16;;
82922;SDS011;72787;51.272;6.040;2023-10-31T20:01:25;6.11;;;5.12;;
82922;SDS011;72787;51.272;6.040;2023-10-31T20:03:51;6.11;;;4.93;;
82922;SDS011;72787;51.272;6.040;2023-10-31T20:06:17;6.32;;;4.96;;
82922;SDS011;72787;51.272;6.040;2023-10-31T20:08:44;5.91;;;4.66;;
82922;SDS011;72787;51.272;6.040;2023-10-31T20:11:11;5.80;;;4.70;;
82922;SDS011;72787;51.272;6.040;2023-10-31T20:13:37;6.10;;;4.85;;
82922;SDS011;72787;51.272;6.040;2023-10-31T20:16:07;5.82;;;4.75;;
82922;SDS011;72787;51.272;6.040;2023-10-31T20:18:34;5.61;;;4.61;;
82922;SDS011;72787;51.272;6.040;2023-10-31T20:21:01;5.36;;;4.44;;
82922;SDS011;72787;51.272;6.040;2023-10-31T20:23:27;5.45;;;4.52;;
82922;SDS011;72787;51.272;6.040;2023-10-31T20:25:53;5.40;;;4.38;;
82922;SDS011;72787;51.272;6.040;2023-10-31T20:28:19;5.10;;;4.22;;
82922;SDS011;72787;51.272;6.040;2023-10-31T20:30:45;4.81;;;4.02;;
82922;SDS011;72787;51.272;6.040;2023-10-31T20:33:11;4.74;;;4.08;;
82922;SDS011;72787;51.272;6.040;2023-10-31T20:35:36;4.66;;;4.02;;
82922;SDS011;72787;51.272;6.040;2023-10-31T20:38:02;4.67;;;4.06;;
82922;SDS011;72787;51.272;6.040;2023-10-31T20:40:28;4.45;;;3.88;;
82922;SDS011;72787;51.272;6.040;2023-10-31T20:42:56;3.98;;;3.58;;
82922;SDS011;72787;51.272;6.040;2023-10-31T20:45:22;4.10;;;3.71;;
82922;SDS011;72787;51.272;6.040;2023-10-31T20:47:49;3.93;;;3.63;;
82922;SDS011;72787;51.272;6.040;2023-10-31T20:50:15;3.85;;;3.56;;
82922;SDS011;72787;51.272;6.040;2023-10-31T20:52:41;3.68;;;3.43;;
82922;SDS011;72787;51.272;6.040;2023-10-31T20:55:07;4.17;;;3.81;;
82922;SDS011;72787;51.272;6.040;2023-10-31T20:57:33;3.74;;;3.44;;
82922;SDS011;72787;51.272;6.040;2023-10-31T20:59:58;4.23;;;3.88;;
82922;SDS011;72787;51.272;6.040;2023-10-31T21:02:25;4.19;;;3.88;;
82922;SDS011;72787;51.272;6.040;2023-10-31T21:04:51;4.35;;;3.94;;
82922;SDS011;72787;51.272;6.040;2023-10-31T21:07:17;4.13;;;3.75;;
82922;SDS011;72787;51.272;6.040;2023-10-31T21:09:43;3.85;;;3.51;;
82922;SDS011;72787;51.272;6.040;2023-10-31T21:12:12;3.84;;;3.64;;
82922;SDS011;72787;51.272;6.040;2023-10-31T21:14:38;3.77;;;3.60;;
82922;SDS011;72787;51.272;6.040;2023-10-31T21:17:04;3.43;;;3.26;;
82922;SDS011;72787;51.272;6.040;2023-10-31T21:19:31;3.96;;;3.70;;
82922;SDS011;72787;51.272;6.040;2023-10-31T21:22:02;3.62;;;3.36;;
82922;SDS011;72787;51.272;6.040;2023-10-31T21:24:29;3.54;;;3.37;;
82922;SDS011;72787;51.272;6.040;2023-10-31T21:26:55;3.32;;;3.18;;
82922;SDS011;72787;51.272;6.040;2023-10-31T21:29:21;3.39;;;3.24;;
82922;SDS011;72787;51.272;6.040;2023-10-31T21:31:47;3.58;;;3.38;;
82922;SDS011;72787;51.272;6.040;2023-10-31T21:34:12;3.58;;;3.37;;
82922;SDS011;72787;51.272;6.040;2023-10-31T21:36:39;3.36;;;3.21;;
82922;SDS011;72787;51.272;6.040;2023-10-31T21:39:05;3.24;;;3.24;;
82922;SDS011;72787;51.272;6.040;2023-10-31T21:41:30;3.43;;;3.34;;
82922;SDS011;72787;51.272;6.040;2023-10-31T21:43:56;3.46;;;3.33;;
82922;SDS011;72787;51.272;6.040;2023-10-31T21:46:22;3.70;;;3.55;;
82922;SDS011;72787;51.272;6.040;2023-10-31T21:48:48;3.31;;;3.27;;
82922;SDS011;72787;51.272;6.040;2023-10-31T21:51:14;3.28;;;3.26;;
82922;SDS011;72787;51.272;6.040;2023-10-31T21:53:40;3.18;;;3.07;;
82922;SDS011;72787;51.272;6.040;2023-10-31T21:56:06;3.45;;;3.31;;
82922;SDS011;72787;51.272;6.040;2023-10-31T21:58:32;3.04;;;2.96;;
82922;SDS011;72787;51.272;6.040;2023-10-31T22:00:58;3.18;;;3.08;;
82922;SDS011;72787;51.272;6.040;2023-10-31T22:03:24;3.25;;;3.17;;
82922;SDS011;72787;51.272;6.040;2023-10-31T22:05:50;3.03;;;3.03;;
82922;SDS011;72787;51.272;6.040;2023-10-31T22:08:16;3.27;;;3.21;;
82922;SDS011;72787;51.272;6.040;2023-10-31T22:10:43;3.09;;;2.96;;
82922;SDS011;72787;51.272;6.040;2023-10-31T22:13:09;3.44;;;3.24;;
82922;SDS011;72787;51.272;6.040;2023-10-31T22:15:35;3.29;;;3.13;;
82922;SDS011;72787;51.272;6.040;2023-10-31T22:18:00;2.81;;;2.80;;
82922;SDS011;72787;51.272;6.040;2023-10-31T22:20:26;2.92;;;2.90;;
82922;SDS011;72787;51.272;6.040;2023-10-31T22:22:52;3.16;;;3.03;;
82922;SDS011;72787;51.272;6.040;2023-10-31T22:25:18;3.07;;;2.96;;
82922;SDS011;72787;51.272;6.040;2023-10-31T22:27:44;2.95;;;2.83;;
82922;SDS011;72787;51.272;6.040;2023-10-31T22:30:09;2.84;;;2.75;;
82922;SDS011;72787;51.272;6.040;2023-10-31T22:32:36;2.75;;;2.65;;
82922;SDS011;72787;51.272;6.040;2023-10-31T22:35:02;3.10;;;2.99;;
82922;SDS011;72787;51.272;6.040;2023-10-31T22:37:28;3.04;;;2.93;;
82922;SDS011;72787;51.272;6.040;2023-10-31T22:39:54;3.08;;;2.96;;
82922;SDS011;72787;51.272;6.040;2023-10-31T22:42:20;2.79;;;2.74;;
82922;SDS011;72787;51.272;6.040;2023-10-31T22:44:49;2.60;;;2.60;;
82922;SDS011;72787;51.272;6.040;2023-10-31T22:47:15;2.51;;;2.51;;
82922;SDS011;72787;51.272;6.040;2023-10-31T22:49:40;2.65;;;2.64;;
82922;SDS011;72787;51.272;6.040;2023-10-31T22:52:06;2.76;;;2.73;;
82922;SDS011;72787;51.272;6.040;2023-10-31T22:54:32;2.81;;;2.81;;
82922;SDS011;72787;51.272;6.040;2023-10-31T22:56:58;2.68;;;2.68;;
82922;SDS011;72787;51.272;6.040;2023-10-31T22:59:24;2.62;;;2.62;;
82922;SDS011;72787;51.272;6.040;2023-10-31T23:01:49;2.57;;;2.57;;
82922;SDS011;72787;51.272;6.040;2023-10-31T23:04:15;2.49;;;2.49;;
82922;SDS011;72787;51.272;6.040;2023-10-31T23:06:41;2.75;;;2.70;;
82922;SDS011;72787;51.272;6.040;2023-10-31T23:09:07;2.83;;;2.70;;
82922;SDS011;72787;51.272;6.040;2023-10-31T23:11:33;2.77;;;2.66;;
82922;SDS011;72787;51.272;6.040;2023-10-31T23:13:58;2.99;;;2.86;;
82922;SDS011;72787;51.272;6.040;2023-10-31T23:16:24;2.94;;;2.81;;
82922;SDS011;72787;51.272;6.040;2023-10-31T23:18:50;2.59;;;2.52;;
82922;SDS011;72787;51.272;6.040;2023-10-31T23:21:16;2.59;;;2.48;;
82922;SDS011;72787;51.272;6.040;2023-10-31T23:23:41;2.82;;;2.73;;
82922;SDS011;72787;51.272;6.040;2023-10-31T23:26:07;2.41;;;2.39;;
82922;SDS011;72787;51.272;6.040;2023-10-31T23:28:33;2.42;;;2.42;;
82922;SDS011;72787;51.272;6.040;2023-10-31T23:31:00;2.41;;;2.41;;
82922;SDS011;72787;51.272;6.040;2023-10-31T23:33:26;2.47;;;2.47;;
82922;SDS011;72787;51.272;6.040;2023-10-31T23:35:52;2.23;;;2.23;;
82922;SDS011;72787;51.272;6.040;2023-10-31T23:38:18;2.59;;;2.59;;
82922;SDS011;72787;51.272;6.040;2023-10-31T23:40:43;2.43;;;2.43;;
82922;SDS011;72787;51.272;6.040;2023-10-31T23:43:14;2.33;;;2.33;;
82922;SDS011;72787;51.272;6.040;2023-10-31T23:45:41;2.55;;;2.54;;
82922;SDS011;72787;51.272;6.040;2023-10-31T23:48:07;2.43;;;2.39;;
82922;SDS011;72787;51.272;6.040;2023-10-31T23:50:33;2.41;;;2.31;;
82922;SDS011;72787;51.272;6.040;2023-10-31T23:53:01;2.57;;;2.49;;
82922;SDS011;72787;51.272;6.040;2023-10-31T23:55:28;2.43;;;2.37;;
82922;SDS011;72787;51.272;6.040;2023-10-31T23:57:54;2.35;;;2.34;;
